Time;durP1;ratioP1;P1;durP2;ratioP2;P2;SDS_P1;SDS_P2;PMS_P1;PMS_P2;Temp;Humidity;BMP_temperature;BMP_pressure;BME280_temperature;BME280_humidity;BME280_pressure;Samples;Min_cycle;Max_cycle;Signal;HPM_P1;HPM_P2
2023/08/11 00:01:37;;;;;;;25.20;9.10;;;;;;;16.79;61.67;101426.04;107503;1254;97835;-58
2023/08/11 00:04:06;;;;;;;20.40;8.00;;;;;;;16.74;61.81;101424.17;107558;1254;111170;-60
2023/08/11 00:06:34;;;;;;;25.30;9.00;;;;;;;16.70;62.12;101427.29;107559;1256;109123;-59
2023/08/11 00:09:07;;;;;;;24.30;9.40;;;;;;;16.66;62.27;101425.15;107470;1251;108377;-60
2023/08/11 00:11:36;;;;;;;21.20;9.90;;;;;;;16.64;62.55;101423.38;107522;1254;97822;-58
2023/08/11 00:14:04;;;;;;;18.40;7.90;;;;;;;16.60;62.63;101418.91;107571;1254;98417;-59
2023/08/11 00:16:33;;;;;;;23.70;9.00;;;;;;;16.57;63.00;101415.80;107565;1257;111464;-59
2023/08/11 00:19:02;;;;;;;16.30;8.80;;;;;;;16.54;63.18;101415.95;107571;1251;109620;-60
2023/08/11 00:21:30;;;;;;;22.90;9.30;;;;;;;16.52;63.35;101415.60;107496;1254;108281;-59
2023/08/11 00:24:02;;;;;;;13.30;5.70;;;;;;;16.52;63.42;101414.45;107552;1254;97826;-59
2023/08/11 00:26:30;;;;;;;7.40;4.50;;;;;;;16.52;63.57;101412.81;107601;1254;97824;-60
2023/08/11 00:28:58;;;;;;;11.80;5.30;;;;;;;16.52;63.73;101412.30;107598;1254;112239;-59
2023/08/11 00:31:27;;;;;;;10.30;4.90;;;;;;;16.54;64.21;101416.25;107513;1254;109897;-60
2023/08/11 00:33:56;;;;;;;9.60;4.10;;;;;;;16.53;64.79;101414.14;107590;1255;108694;-60
2023/08/11 00:36:24;;;;;;;13.60;4.70;;;;;;;16.52;65.36;101412.13;107523;1251;97873;-60
2023/08/11 00:38:53;;;;;;;13.10;6.40;;;;;;;16.50;65.06;101407.45;107545;1254;97688;-59
2023/08/11 00:41:21;;;;;;;14.80;5.30;;;;;;;16.50;64.71;101402.16;107529;1254;111316;-59
2023/08/11 00:43:49;;;;;;;10.10;5.00;;;;;;;16.53;64.54;101403.34;107552;1254;110276;-59
2023/08/11 00:46:21;;;;;;;15.00;6.40;;;;;;;16.56;64.71;101404.08;107503;1251;108199;-59
2023/08/11 00:48:51;;;;;;;13.10;6.00;;;;;;;16.56;65.44;101407.94;107493;1257;97797;-59
2023/08/11 00:51:22;;;;;;;14.40;5.80;;;;;;;16.49;65.47;101413.66;107538;1254;97710;-59
2023/08/11 00:53:51;;;;;;;16.20;6.40;;;;;;;16.42;65.32;101413.90;107507;1254;111410;-59
2023/08/11 00:56:24;;;;;;;13.20;6.40;;;;;;;16.41;65.53;101412.02;107469;1256;109469;-59
2023/08/11 00:58:54;;;;;;;12.60;6.30;;;;;;;16.39;65.56;101411.29;107524;1254;106014;-60
2023/08/11 01:01:22;;;;;;;14.30;6.50;;;;;;;16.40;65.93;101414.59;107453;1254;97889;-59
2023/08/11 01:03:52;;;;;;;10.10;6.00;;;;;;;16.41;66.16;101411.73;107524;1256;97711;-61
2023/08/11 01:06:24;;;;;;;14.50;8.80;;;;;;;16.38;65.97;101413.94;107498;1251;111379;-59
2023/08/11 01:09:07;;;;;;;14.30;6.30;;;;;;;16.31;66.64;101414.31;107488;1256;109791;-58
2023/08/11 01:11:38;;;;;;;14.30;7.30;;;;;;;16.22;66.49;101420.57;107488;1250;106818;-59
2023/08/11 01:14:52;;;;;;;14.30;7.00;;;;;;;16.20;66.40;101428.45;107475;1251;97800;-60
2023/08/11 01:17:21;;;;;;;13.70;5.20;;;;;;;16.18;66.69;101430.58;107564;1251;98488;-58
2023/08/11 01:19:50;;;;;;;11.80;5.70;;;;;;;16.20;67.55;101420.14;107428;1256;113266;-58
2023/08/11 01:22:23;;;;;;;10.90;5.80;;;;;;;16.22;67.78;101421.05;107578;1251;108161;-58
2023/08/11 01:24:52;;;;;;;13.00;5.20;;;;;;;16.20;67.60;101422.11;107563;1251;107717;-59
2023/08/11 01:27:20;;;;;;;13.80;5.20;;;;;;;16.18;67.55;101425.86;107454;1257;97841;-59
2023/08/11 01:29:49;;;;;;;8.90;5.20;;;;;;;16.18;67.35;101424.14;107543;1256;98475;-60
2023/08/11 01:32:18;;;;;;;10.10;5.30;;;;;;;16.16;67.27;101423.41;107600;1251;110744;-59
2023/08/11 01:34:47;;;;;;;9.70;5.20;;;;;;;16.15;67.17;101422.41;107501;1251;109274;-61
2023/08/11 01:37:15;;;;;;;14.10;5.10;;;;;;;16.14;67.03;101422.70;107432;1256;109536;-60
2023/08/11 01:39:43;;;;;;;12.10;4.80;;;;;;;16.16;66.98;101421.58;107382;1259;97858;-59
2023/08/11 01:42:12;;;;;;;9.70;4.60;;;;;;;16.17;67.39;101423.69;107500;1251;98309;-59
2023/08/11 01:44:42;;;;;;;15.40;4.50;;;;;;;16.14;67.48;101422.88;107437;1255;111786;-59
2023/08/11 01:47:11;;;;;;;10.10;4.40;;;;;;;16.13;67.80;101416.50;107387;1254;108943;-60
2023/08/11 01:49:40;;;;;;;6.80;3.90;;;;;;;16.11;67.86;101416.85;107613;1251;107427;-58
2023/08/11 01:52:08;;;;;;;9.40;3.80;;;;;;;16.10;67.75;101413.55;107511;1255;97857;-59
2023/08/11 01:54:37;;;;;;;15.40;3.90;;;;;;;16.09;68.25;101414.30;107529;1257;98283;-60
2023/08/11 01:57:06;;;;;;;10.40;3.60;;;;;;;16.11;68.31;101413.08;107469;1257;111904;-60
2023/08/11 01:59:35;;;;;;;10.80;3.40;;;;;;;16.10;68.23;101407.03;107506;1254;108605;-59
2023/08/11 02:02:04;;;;;;;5.50;3.00;;;;;;;16.09;68.43;101407.05;107468;1252;108109;-58
2023/08/11 02:04:33;;;;;;;10.20;4.10;;;;;;;16.07;68.36;101411.89;107550;1254;97834;-59
2023/08/11 02:07:01;;;;;;;13.30;3.70;;;;;;;16.05;68.55;101404.08;107537;1254;97933;-58
2023/08/11 02:09:31;;;;;;;9.50;3.20;;;;;;;16.05;68.43;101401.39;107526;1256;110950;-58
2023/08/11 02:11:59;;;;;;;16.90;4.00;;;;;;;16.07;68.13;101397.59;107516;1257;108693;-57
2023/08/11 02:14:28;;;;;;;8.10;4.00;;;;;;;16.07;68.15;101392.59;107541;1256;108016;-59
2023/08/11 02:16:56;;;;;;;7.30;3.40;;;;;;;16.05;68.34;101390.37;107412;1255;97860;-59
2023/08/11 02:19:24;;;;;;;10.70;3.60;;;;;;;16.01;69.07;101390.44;107431;1256;97778;-60
2023/08/11 02:21:53;;;;;;;10.10;3.30;;;;;;;15.98;68.52;101395.95;107533;1252;111728;-62
2023/08/11 02:24:21;;;;;;;8.10;3.90;;;;;;;15.99;68.31;101399.24;107560;1251;109946;-58
2023/08/11 02:26:51;;;;;;;12.80;3.60;;;;;;;16.00;68.29;101399.56;107522;1254;107657;-59
2023/08/11 02:29:21;;;;;;;10.50;3.90;;;;;;;16.01;68.18;101399.97;107531;1256;97807;-59
2023/08/11 02:31:49;;;;;;;7.90;3.70;;;;;;;16.00;68.16;101404.75;107602;1252;97917;-58
2023/08/11 02:34:18;;;;;;;7.30;3.30;;;;;;;15.99;68.06;101402.57;107528;1252;112272;-58
2023/08/11 02:36:47;;;;;;;7.70;3.20;;;;;;;15.94;68.26;101404.96;107530;1255;109124;-60
2023/08/11 02:39:16;;;;;;;12.90;3.20;;;;;;;15.92;68.22;101398.15;107484;1251;107472;-58
2023/08/11 02:41:44;;;;;;;11.90;3.70;;;;;;;15.91;68.54;101403.52;107416;1254;97893;-58
2023/08/11 02:44:14;;;;;;;12.60;3.20;;;;;;;15.88;68.52;101401.50;107503;1256;97713;-60
2023/08/11 02:46:43;;;;;;;7.10;3.60;;;;;;;15.86;68.65;101403.14;107597;1256;112029;-59
2023/08/11 02:49:11;;;;;;;9.40;3.00;;;;;;;15.82;68.56;101407.08;107545;1251;108830;-60
2023/08/11 02:51:40;;;;;;;10.60;3.30;;;;;;;15.80;68.84;101404.91;107459;1254;108691;-60
2023/08/11 02:54:09;;;;;;;6.80;3.40;;;;;;;15.80;68.75;101402.03;107411;1254;97825;-59
2023/08/11 02:56:45;;;;;;;6.80;3.50;;;;;;;15.81;70.05;101406.63;107480;1251;97720;-58
2023/08/11 02:59:13;;;;;;;10.00;3.80;;;;;;;15.77;71.03;101405.94;107535;1256;111123;-59
2023/08/11 03:01:41;;;;;;;10.00;3.10;;;;;;;15.74;70.89;101403.39;107548;1251;110205;-59
2023/08/11 03:04:10;;;;;;;9.50;3.10;;;;;;;15.72;71.05;101402.33;107471;1253;108478;-58
2023/08/11 03:06:39;;;;;;;7.50;2.90;;;;;;;15.72;70.89;101403.78;107432;1254;97787;-59
2023/08/11 03:09:07;;;;;;;8.20;3.70;;;;;;;15.73;71.02;101401.63;107491;1254;98269;-58
2023/08/11 03:11:36;;;;;;;9.70;3.30;;;;;;;15.75;72.35;101407.61;107467;1254;111323;-60
2023/08/11 03:14:05;;;;;;;7.90;2.80;;;;;;;15.74;71.99;101412.04;107549;1254;109333;-59
2023/08/11 03:16:34;;;;;;;8.10;3.50;;;;;;;15.73;71.66;101414.37;107409;1256;108828;-59
2023/08/11 03:19:03;;;;;;;6.20;3.30;;;;;;;15.72;72.08;101413.55;107515;1253;98305;-58
2023/08/11 03:21:32;;;;;;;8.70;3.60;;;;;;;15.72;71.80;101413.00;107536;1251;97815;-58
2023/08/11 03:24:01;;;;;;;5.90;3.20;;;;;;;15.74;71.53;101410.41;107531;1254;110095;-58
2023/08/11 03:26:29;;;;;;;8.40;3.80;;;;;;;15.77;71.33;101417.36;107523;1254;109823;-59
2023/08/11 03:28:58;;;;;;;6.20;3.00;;;;;;;15.79;71.22;101415.11;107401;1254;108773;-58
2023/08/11 03:31:26;;;;;;;12.00;3.60;;;;;;;15.85;71.04;101416.27;107553;1254;98414;-58
2023/08/11 03:33:55;;;;;;;11.90;4.00;;;;;;;15.89;70.99;101415.50;107528;1251;97825;-59
2023/08/11 03:36:24;;;;;;;5.20;3.30;;;;;;;15.91;70.89;101418.67;107529;1251;112995;-60
2023/08/11 03:38:53;;;;;;;8.90;4.10;;;;;;;15.94;71.29;101423.77;107477;1251;108993;-60
2023/08/11 03:41:22;;;;;;;8.40;3.40;;;;;;;15.95;71.98;101425.67;107525;1257;107692;-60
2023/08/11 03:43:52;;;;;;;11.30;3.50;;;;;;;15.94;71.33;101431.40;107447;1254;97829;-58
2023/08/11 03:46:23;;;;;;;7.90;3.60;;;;;;;15.94;71.52;101438.45;107557;1256;97936;-60
2023/08/11 03:48:52;;;;;;;8.70;4.20;;;;;;;15.94;71.55;101434.42;107529;1253;111464;-60
2023/08/11 03:51:46;;;;;;;8.70;4.70;;;;;;;15.96;71.22;101436.48;107558;1253;110145;-60
2023/08/11 03:54:17;;;;;;;18.20;8.60;;;;;;;15.95;71.40;101437.96;107493;1254;108933;-58
2023/08/11 03:56:56;;;;;;;12.10;4.40;;;;;;;15.96;71.89;101439.37;107509;1252;97807;-58
2023/08/11 03:59:24;;;;;;;9.20;4.50;;;;;;;15.93;71.79;101438.17;107401;1257;97783;-59
2023/08/11 04:01:54;;;;;;;7.70;3.90;;;;;;;15.95;71.98;101435.67;107466;1251;111831;-59
2023/08/11 04:04:23;;;;;;;10.80;4.40;;;;;;;15.97;71.98;101433.31;107475;1251;109827;-60
2023/08/11 04:06:52;;;;;;;15.90;5.10;;;;;;;16.01;72.65;101434.17;107513;1251;108391;-60
2023/08/11 04:09:21;;;;;;;9.80;5.20;;;;;;;16.04;72.51;101430.08;107437;1251;97800;-59
2023/08/11 04:11:49;;;;;;;10.80;4.60;;;;;;;16.05;72.92;101431.71;107526;1254;97746;-60
2023/08/11 04:14:18;;;;;;;12.90;5.10;;;;;;;16.08;73.82;101433.28;107585;1254;111270;-58
2023/08/11 04:16:47;;;;;;;15.20;4.50;;;;;;;16.08;73.98;101432.73;107517;1251;107696;-59
2023/08/11 04:19:16;;;;;;;9.00;4.10;;;;;;;16.09;73.60;101434.11;107458;1251;107560;-59
2023/08/11 04:21:45;;;;;;;11.20;4.70;;;;;;;16.14;73.95;101436.27;107514;1251;97809;-60
2023/08/11 04:24:15;;;;;;;15.00;5.00;;;;;;;16.17;74.06;101436.34;107535;1252;98427;-59
2023/08/11 04:26:45;;;;;;;12.00;6.30;;;;;;;16.18;73.81;101437.36;107531;1251;112003;-60
2023/08/11 04:29:13;;;;;;;12.80;4.70;;;;;;;16.20;73.77;101438.36;107499;1251;110086;-61
2023/08/11 04:31:42;;;;;;;18.20;5.80;;;;;;;16.25;73.64;101434.64;107441;1254;107688;-60
2023/08/11 04:34:13;;;;;;;17.20;7.70;;;;;;;16.32;73.62;101432.68;107387;1254;97891;-60
2023/08/11 04:36:42;;;;;;;14.40;6.30;;;;;;;16.40;73.44;101435.29;107456;1251;97698;-59
2023/08/11 04:39:11;;;;;;;15.60;6.20;;;;;;;16.46;74.03;101438.83;107469;1251;112182;-59
2023/08/11 04:41:40;;;;;;;13.90;5.50;;;;;;;16.49;74.24;101437.59;107536;1254;111096;-60
2023/08/11 04:44:08;;;;;;;14.20;5.60;;;;;;;16.52;74.37;101436.23;107514;1254;108391;-58
2023/08/11 04:46:37;;;;;;;10.90;5.10;;;;;;;16.54;74.17;101436.34;107553;1254;97890;-60
2023/08/11 04:49:06;;;;;;;19.90;6.90;;;;;;;16.56;74.78;101437.79;107610;1254;97821;-60
2023/08/11 04:51:34;;;;;;;17.10;6.10;;;;;;;16.55;74.22;101441.10;107565;1253;111883;-61
2023/08/11 04:54:03;;;;;;;14.30;7.10;;;;;;;16.58;74.33;101443.52;107578;1253;108285;-60
2023/08/11 04:56:32;;;;;;;17.90;7.00;;;;;;;16.63;74.40;101443.64;107553;1254;108686;-59
2023/08/11 04:59:01;;;;;;;15.70;5.60;;;;;;;16.69;74.46;101448.56;107476;1256;98015;-58
2023/08/11 05:01:29;;;;;;;18.20;6.10;;;;;;;16.74;73.99;101451.71;107392;1254;98326;-58
2023/08/11 05:03:57;;;;;;;11.00;5.30;;;;;;;16.80;74.07;101452.85;107500;1251;111861;-58
2023/08/11 05:06:26;;;;;;;11.60;5.60;;;;;;;16.85;73.92;101451.05;107507;1251;107955;-60
2023/08/11 05:08:55;;;;;;;15.00;6.10;;;;;;;16.92;73.64;101451.80;107381;1251;108225;-59
2023/08/11 05:11:24;;;;;;;12.20;5.90;;;;;;;16.99;73.63;101449.65;107390;1251;97965;-60
2023/08/11 05:13:56;;;;;;;18.80;7.30;;;;;;;17.07;73.22;101450.28;107424;1254;97697;-59
2023/08/11 05:16:25;;;;;;;15.90;6.10;;;;;;;17.16;73.07;101453.10;107541;1254;111760;-60
2023/08/11 05:18:53;;;;;;;15.60;5.90;;;;;;;17.26;72.83;101449.54;107516;1254;109668;-59
2023/08/11 05:21:22;;;;;;;12.40;5.70;;;;;;;17.36;72.90;101454.30;107514;1254;108199;-58
2023/08/11 05:23:50;;;;;;;9.10;4.60;;;;;;;17.45;72.91;101460.66;107538;1253;97904;-59
2023/08/11 05:26:18;;;;;;;9.20;4.70;;;;;;;17.52;73.21;101460.23;107533;1253;97715;-59
2023/08/11 05:28:47;;;;;;;8.50;4.50;;;;;;;17.60;73.18;101460.63;107403;1251;111400;-59
2023/08/11 05:31:15;;;;;;;10.80;4.60;;;;;;;17.70;73.23;101458.17;107415;1251;111262;-59
2023/08/11 05:33:44;;;;;;;13.50;4.70;;;;;;;17.77;73.36;101456.25;107616;1256;106767;-60
2023/08/11 05:36:13;;;;;;;14.10;4.70;;;;;;;17.88;73.59;101450.38;107493;1251;97800;-60
2023/08/11 05:38:41;;;;;;;12.10;5.60;;;;;;;17.97;73.28;101455.02;107510;1254;97931;-60
2023/08/11 05:41:10;;;;;;;14.50;4.70;;;;;;;18.03;73.12;101455.26;107442;1251;111081;-59
2023/08/11 05:43:38;;;;;;;13.80;5.10;;;;;;;18.08;73.21;101454.42;107566;1257;109944;-59
2023/08/11 05:46:07;;;;;;;13.10;5.00;;;;;;;18.10;73.06;101454.45;107402;1254;108218;-60
2023/08/11 05:48:36;;;;;;;10.10;4.60;;;;;;;18.08;72.56;101454.89;107474;1251;97839;-59
2023/08/11 05:51:04;;;;;;;14.00;4.70;;;;;;;18.06;72.43;101451.48;107426;1251;98369;-59
2023/08/11 05:53:33;;;;;;;13.10;4.80;;;;;;;18.10;72.61;101456.12;107459;1251;112256;-61
2023/08/11 05:56:01;;;;;;;11.90;4.70;;;;;;;18.13;72.58;101461.40;107428;1254;108357;-59
2023/08/11 05:58:30;;;;;;;14.40;4.70;;;;;;;18.21;72.59;101464.02;107353;1251;107841;-60
2023/08/11 06:01:00;;;;;;;16.00;5.10;;;;;;;18.29;72.36;101461.50;107432;1254;97835;-60
2023/08/11 06:03:31;;;;;;;16.30;4.70;;;;;;;18.37;71.95;101460.07;107495;1251;97710;-60
2023/08/11 06:06:01;;;;;;;13.70;4.70;;;;;;;18.45;71.64;101461.60;107451;1251;110233;-60
2023/08/11 06:08:30;;;;;;;13.60;5.60;;;;;;;18.52;71.46;101464.04;107520;1251;108930;-59
2023/08/11 06:10:58;;;;;;;21.40;4.80;;;;;;;18.58;71.13;101465.91;107494;1254;107072;-60
2023/08/11 06:13:27;;;;;;;8.00;4.60;;;;;;;18.64;70.86;101467.34;107493;1251;97866;-58
2023/08/11 06:15:56;;;;;;;9.60;4.70;;;;;;;18.69;70.63;101472.74;107617;1251;98347;-58
2023/08/11 06:18:25;;;;;;;16.60;4.50;;;;;;;18.70;70.24;101469.66;107420;1251;111492;-59
2023/08/11 06:20:53;;;;;;;9.40;4.40;;;;;;;18.74;70.08;101465.00;107437;1251;109114;-59
2023/08/11 06:23:22;;;;;;;15.60;5.20;;;;;;;18.81;69.80;101462.86;107692;1251;107972;-60
2023/08/11 06:25:53;;;;;;;12.60;4.10;;;;;;;18.86;69.41;101463.52;107426;1251;98042;-58
2023/08/11 06:28:21;;;;;;;7.00;4.10;;;;;;;18.92;69.11;101469.55;107368;1251;97809;-58
2023/08/11 06:30:50;;;;;;;13.40;4.40;;;;;;;18.96;68.93;101466.48;107560;1255;111750;-59
2023/08/11 06:33:20;;;;;;;16.00;4.40;;;;;;;19.01;68.91;101468.95;107532;1251;109055;-58
2023/08/11 06:35:48;;;;;;;18.40;4.30;;;;;;;19.08;68.67;101471.83;107418;1251;107674;-59
2023/08/11 06:38:16;;;;;;;14.00;5.10;;;;;;;19.12;68.09;101469.58;107436;1251;97901;-59
2023/08/11 06:40:45;;;;;;;18.50;5.20;;;;;;;19.16;68.56;101468.73;107490;1251;98466;-58
2023/08/11 06:43:13;;;;;;;15.30;4.80;;;;;;;19.26;68.28;101466.55;107546;1251;112005;-58
2023/08/11 06:45:45;;;;;;;9.10;4.30;;;;;;;19.34;67.63;101467.56;107450;1253;109516;-59
2023/08/11 06:48:14;;;;;;;10.00;4.80;;;;;;;19.38;67.51;101464.20;107565;1252;108767;-61
2023/08/11 06:50:42;;;;;;;8.10;4.20;;;;;;;19.45;67.42;101457.93;107591;1251;97960;-60
2023/08/11 06:53:11;;;;;;;9.80;4.20;;;;;;;19.51;66.65;101455.27;107550;1250;97713;-59
2023/08/11 06:55:39;;;;;;;9.90;4.30;;;;;;;19.59;66.78;101453.84;107500;1251;111217;-61
2023/08/11 06:58:07;;;;;;;15.90;4.40;;;;;;;19.68;66.44;101453.60;107475;1254;109120;-60
2023/08/11 07:00:36;;;;;;;7.50;4.00;;;;;;;19.76;66.20;101453.83;107544;1251;107521;-59
2023/08/11 07:03:05;;;;;;;13.10;4.40;;;;;;;19.84;65.49;101451.95;107447;1254;98483;-59
2023/08/11 07:05:33;;;;;;;10.40;4.50;;;;;;;19.89;64.81;101450.41;107410;1251;97772;-58
2023/08/11 07:08:01;;;;;;;13.50;4.60;;;;;;;19.94;64.61;101450.61;107446;1254;112361;-60
2023/08/11 07:10:30;;;;;;;13.80;4.10;;;;;;;19.98;63.49;101448.65;107557;1251;108749;-59
2023/08/11 07:12:59;;;;;;;8.90;4.30;;;;;;;20.01;63.17;101446.14;107526;1251;107529;-59
2023/08/11 07:15:27;;;;;;;10.40;5.00;;;;;;;20.08;63.35;101445.17;107493;1251;97815;-60
2023/08/11 07:17:55;;;;;;;19.20;5.20;;;;;;;20.18;63.24;101446.02;107456;1254;98376;-59
2023/08/11 07:20:24;;;;;;;8.30;4.80;;;;;;;20.26;63.21;101443.08;107470;1253;111646;-59
2023/08/11 07:22:52;;;;;;;13.10;5.00;;;;;;;20.34;63.09;101440.66;107523;1253;108854;-59
2023/08/11 07:25:21;;;;;;;14.10;5.10;;;;;;;20.48;63.19;101438.04;107552;1250;107011;-58
2023/08/11 07:27:49;;;;;;;17.80;5.50;;;;;;;20.64;62.65;101435.25;107497;1254;97845;-59
2023/08/11 07:30:17;;;;;;;8.40;4.10;;;;;;;20.78;62.53;101434.30;107550;1256;98052;-59
2023/08/11 07:32:46;;;;;;;11.20;4.90;;;;;;;20.89;62.40;101437.32;107553;1254;111509;-60
2023/08/11 07:35:17;;;;;;;9.50;4.50;;;;;;;20.95;62.13;101437.63;107521;1254;108855;-59
2023/08/11 07:37:45;;;;;;;7.60;3.80;;;;;;;21.03;61.36;101439.42;107516;1255;107236;-59
2023/08/11 07:40:16;;;;;;;11.60;4.50;;;;;;;21.07;60.93;101440.44;107519;1251;97733;-61
2023/08/11 07:42:45;;;;;;;16.90;4.50;;;;;;;21.12;60.48;101431.02;107485;1254;97834;-59
2023/08/11 07:45:14;;;;;;;7.70;3.70;;;;;;;21.23;60.52;101431.54;107531;1251;110996;-59
2023/08/11 07:47:42;;;;;;;10.10;4.20;;;;;;;21.32;59.47;101427.32;107470;1251;109870;-60
2023/08/11 07:50:11;;;;;;;6.10;4.00;;;;;;;21.37;59.16;101426.88;107453;1251;108392;-60
2023/08/11 07:52:40;;;;;;;10.40;4.30;;;;;;;21.43;59.58;101423.58;107443;1251;97867;-59
2023/08/11 07:55:08;;;;;;;11.90;4.20;;;;;;;21.44;59.05;101424.70;107580;1250;97811;-59
2023/08/11 07:57:37;;;;;;;12.60;4.50;;;;;;;21.54;59.34;101423.13;107568;1251;111707;-59
2023/08/11 08:00:13;;;;;;;7.40;4.20;;;;;;;21.70;59.47;101427.71;107484;1250;109739;-59
2023/08/11 08:02:44;;;;;;;9.00;4.10;;;;;;;21.84;59.30;101425.61;107490;1253;107942;-59
2023/08/11 08:05:13;;;;;;;10.20;3.60;;;;;;;21.98;58.83;101418.70;107545;1250;97703;-60
2023/08/11 08:07:42;;;;;;;8.40;4.10;;;;;;;22.08;58.24;101415.69;107485;1252;97746;-60
2023/08/11 08:10:11;;;;;;;9.70;3.50;;;;;;;22.18;57.97;101412.39;107451;1254;113144;-58
2023/08/11 08:12:42;;;;;;;8.60;3.80;;;;;;;22.32;57.40;101405.80;107582;1254;110551;-59
2023/08/11 08:15:12;;;;;;;10.80;3.90;;;;;;;22.49;56.84;101402.84;107463;1254;107426;-59
2023/08/11 08:17:40;;;;;;;6.50;3.50;;;;;;;22.63;56.42;101396.65;107524;1251;97794;-60
2023/08/11 08:20:10;;;;;;;6.20;3.90;;;;;;;22.76;56.16;101394.48;107514;1253;99193;-59
2023/08/11 08:22:38;;;;;;;6.90;3.80;;;;;;;22.93;55.06;101396.85;107582;1254;112138;-60
2023/08/11 08:25:07;;;;;;;8.50;3.80;;;;;;;23.01;54.43;101403.06;107514;1251;109681;-60
2023/08/11 08:27:37;;;;;;;7.60;4.00;;;;;;;23.01;54.13;101403.06;107523;1251;109454;-59
2023/08/11 08:30:10;;;;;;;11.30;3.60;;;;;;;23.08;54.49;101391.36;107484;1251;97832;-60
2023/08/11 08:32:40;;;;;;;8.10;3.50;;;;;;;23.21;55.03;101388.35;107534;1251;98369;-60
2023/08/11 08:35:10;;;;;;;8.90;3.60;;;;;;;23.38;54.53;101388.88;107535;1250;112750;-60
2023/08/11 08:37:38;;;;;;;6.40;2.90;;;;;;;23.57;52.64;101380.86;107456;1254;110034;-59
2023/08/11 08:40:08;;;;;;;13.20;3.50;;;;;;;23.75;50.90;101375.65;107551;1251;108432;-60
2023/08/11 08:42:37;;;;;;;6.80;3.50;;;;;;;23.90;50.65;101373.30;107549;1251;97817;-60
2023/08/11 08:45:07;;;;;;;9.30;3.90;;;;;;;24.07;51.15;101372.44;107525;1253;97901;-60
2023/08/11 08:47:37;;;;;;;14.80;3.90;;;;;;;24.25;51.05;101371.63;107584;1251;111127;-60
2023/08/11 08:50:07;;;;;;;9.80;3.80;;;;;;;24.43;51.17;101367.55;107577;1251;110129;-58
2023/08/11 08:52:37;;;;;;;6.10;3.60;;;;;;;24.60;50.52;101370.90;107526;1251;107719;-59
2023/08/11 08:55:06;;;;;;;5.80;3.20;;;;;;;24.69;49.06;101368.27;107481;1251;97932;-60
2023/08/11 08:57:35;;;;;;;7.40;2.80;;;;;;;24.81;49.09;101367.52;107472;1251;98453;-61
2023/08/11 09:00:04;;;;;;;12.50;3.30;;;;;;;24.99;47.73;101359.95;107477;1251;111259;-59
2023/08/11 09:02:33;;;;;;;6.90;3.00;;;;;;;25.12;47.63;101360.79;107594;1251;109548;-61
2023/08/11 09:05:01;;;;;;;8.60;2.80;;;;;;;25.30;46.20;101357.55;107554;1253;107583;-60
2023/08/11 09:07:29;;;;;;;7.00;2.80;;;;;;;25.47;44.72;101355.84;107524;1251;98124;-60
2023/08/11 09:09:58;;;;;;;5.90;3.00;;;;;;;25.62;44.86;101358.59;107571;1252;97701;-60
2023/08/11 09:12:27;;;;;;;6.90;2.10;;;;;;;25.79;42.16;101354.77;107552;1254;111498;-58
2023/08/11 09:14:58;;;;;;;10.10;3.30;;;;;;;25.90;42.77;101352.48;107463;1250;108762;-60
2023/08/11 09:17:27;;;;;;;6.70;2.70;;;;;;;26.06;42.97;101353.29;107502;1251;109404;-59
2023/08/11 09:19:56;;;;;;;7.90;3.10;;;;;;;26.27;43.02;101356.73;107467;1254;97783;-60
2023/08/11 09:22:25;;;;;;;6.50;2.40;;;;;;;26.55;41.40;101350.20;107500;1256;97866;-60
2023/08/11 09:24:55;;;;;;;7.20;2.90;;;;;;;26.81;40.08;101347.91;107489;1251;111658;-61
2023/08/11 09:27:24;;;;;;;5.20;2.40;;;;;;;27.07;39.94;101351.92;107494;1251;109693;-60
2023/08/11 09:29:55;;;;;;;6.40;2.00;;;;;;;27.39;38.64;101347.67;107438;1251;108280;-59
2023/08/11 09:32:24;;;;;;;14.80;2.50;;;;;;;27.78;38.85;101355.05;107430;1251;98065;-59
2023/08/11 09:34:54;;;;;;;7.60;2.10;;;;;;;28.29;39.02;101351.10;107533;1251;97695;-59
2023/08/11 09:37:22;;;;;;;2.20;1.80;;;;;;;28.85;37.12;101346.91;107446;1251;112958;-59
2023/08/11 09:39:56;;;;;;;7.20;2.20;;;;;;;29.28;35.57;101347.21;107471;1251;109675;-60
2023/08/11 09:42:26;;;;;;;5.70;1.70;;;;;;;29.79;34.91;101348.88;107468;1254;107108;-60
2023/08/11 09:44:54;;;;;;;8.80;2.60;;;;;;;30.13;34.12;101350.83;107530;1250;98022;-59
2023/08/11 09:47:23;;;;;;;10.70;2.60;;;;;;;30.46;33.52;101348.42;107053;1251;668812;-60
2023/08/11 09:49:52;;;;;;;4.60;2.30;;;;;;;30.53;32.78;101353.04;107678;1250;111553;-59
2023/08/11 09:52:22;;;;;;;11.90;2.40;;;;;;;30.48;32.64;101353.17;107603;1254;108759;-60
2023/08/11 09:54:55;;;;;;;9.20;2.00;;;;;;;30.15;33.77;101357.51;107489;1252;107678;-59
2023/08/11 09:57:25;;;;;;;5.40;2.00;;;;;;;30.35;33.90;101352.21;107424;1254;98207;-62
2023/08/11 09:59:57;;;;;;;3.00;2.30;;;;;;;30.27;33.37;101355.27;107477;1251;97812;-61
2023/08/11 10:02:30;;;;;;;7.20;2.60;;;;;;;30.47;33.96;101353.21;107523;1251;111464;-61
2023/08/11 10:05:04;;;;;;;9.00;2.20;;;;;;;30.55;33.70;101349.06;107480;1253;109704;-60
2023/08/11 10:07:39;;;;;;;6.40;2.20;;;;;;;30.21;32.63;101350.90;107521;1251;108255;-62
2023/08/11 10:10:30;;;;;;;4.30;2.10;;;;;;;29.84;32.96;101353.67;107460;1252;97727;-60
2023/08/11 10:13:08;;;;;;;14.20;2.70;;;;;;;29.33;33.88;101362.73;107518;1251;98388;-60
2023/08/11 10:15:39;;;;;;;4.20;1.90;;;;;;;28.93;34.22;101358.42;107543;1251;110628;-61
2023/08/11 10:18:08;;;;;;;5.70;2.40;;;;;;;28.65;34.88;101359.27;107448;1254;108361;-60
2023/08/11 10:20:37;;;;;;;6.00;2.30;;;;;;;29.28;34.19;101350.92;107507;1254;107638;-60
2023/08/11 10:23:07;;;;;;;5.20;2.00;;;;;;;30.43;33.96;101348.52;107529;1253;97909;-59
2023/08/11 10:25:36;;;;;;;8.10;2.20;;;;;;;31.52;32.24;101348.15;107574;1256;97832;-60
2023/08/11 10:28:07;;;;;;;4.10;2.40;;;;;;;31.96;31.29;101349.89;107566;1254;112380;-60
2023/08/11 10:30:36;;;;;;;9.70;2.00;;;;;;;31.71;31.24;101350.40;107599;1254;109928;-60
2023/08/11 10:33:07;;;;;;;5.60;2.20;;;;;;;32.18;31.12;101352.98;107620;1251;108745;-59
2023/08/11 10:35:37;;;;;;;;;;;;;;;33.06;30.15;101344.36;107579;1251;97808;-59
2023/08/11 10:38:05;;;;;;;2.60;1.90;;;;;;;33.78;28.70;101345.60;107546;1253;97896;-61
2023/08/11 10:40:37;;;;;;;5.40;1.60;;;;;;;34.40;27.86;101339.63;107497;1254;111699;-61
2023/08/11 10:43:06;;;;;;;7.20;1.70;;;;;;;35.10;26.52;101338.89;107570;1251;109951;-60
2023/08/11 10:45:36;;;;;;;3.70;1.60;;;;;;;35.26;25.74;101341.27;107512;1251;107285;-61
2023/08/11 10:48:09;;;;;;;3.80;1.50;;;;;;;35.40;25.04;101344.36;107528;1255;98534;-59
2023/08/11 10:50:38;;;;;;;;;;;;;;;35.75;24.80;101339.91;107632;1251;97742;-61
2023/08/11 10:53:20;;;;;;;7.10;2.00;;;;;;;36.29;24.75;101339.53;107603;1253;112268;-59
2023/08/11 10:56:02;;;;;;;7.00;1.60;;;;;;;36.84;23.10;101337.02;107492;1251;109961;-61
2023/08/11 10:58:32;;;;;;;4.50;2.00;;;;;;;37.11;23.03;101340.72;107532;1251;107134;-59
2023/08/11 11:01:00;;;;;;;4.50;1.80;;;;;;;36.55;22.57;101330.92;107497;1254;98344;-59
2023/08/11 11:03:28;;;;;;;2.90;1.60;;;;;;;35.32;24.39;101323.67;107530;1252;97938;-61
2023/08/11 11:05:58;;;;;;;3.20;1.60;;;;;;;35.39;24.91;101326.42;107535;1251;111221;-59
2023/08/11 11:08:26;;;;;;;5.10;1.60;;;;;;;35.03;25.29;101329.05;107486;1251;109320;-59
2023/08/11 11:10:55;;;;;;;9.30;2.00;;;;;;;34.50;24.78;101325.29;107405;1257;107573;-61
2023/08/11 11:13:23;;;;;;;9.10;1.70;;;;;;;33.84;25.16;101323.58;107554;1254;97903;-60
2023/08/11 11:15:51;;;;;;;3.10;2.00;;;;;;;33.22;25.26;101322.73;107562;1253;98337;-60
2023/08/11 11:18:20;;;;;;;6.40;1.70;;;;;;;32.80;26.24;101322.88;107543;1251;111945;-61
2023/08/11 11:20:48;;;;;;;11.50;2.60;;;;;;;32.99;26.53;101318.98;107472;1251;109167;-61